createdAt,value
2024-01-08T00:01:07.020Z,-0.70
2024-01-08T00:03:40.550Z,-0.70
2024-01-08T00:06:08.259Z,-0.70
2024-01-08T00:08:36.987Z,-0.70
2024-01-08T00:11:05.714Z,-0.80
2024-01-08T00:13:35.550Z,-0.80
2024-01-08T00:16:04.100Z,-0.80
2024-01-08T00:18:32.909Z,-0.80
2024-01-08T00:21:03.987Z,-0.80
2024-01-08T00:23:34.695Z,-0.70
2024-01-08T00:26:03.265Z,-0.70
2024-01-08T00:28:31.708Z,-0.70
2024-01-08T00:31:01.565Z,-0.70
2024-01-08T00:33:30.211Z,-0.70
2024-01-08T00:35:58.723Z,-0.70
2024-01-08T00:38:27.148Z,-0.80
2024-01-08T00:40:55.627Z,-0.80
2024-01-08T00:43:24.027Z,-0.80
2024-01-08T00:45:54.827Z,-0.70
2024-01-08T00:48:24.636Z,-0.70
2024-01-08T00:50:54.339Z,-0.70
2024-01-08T00:53:22.907Z,-0.70
2024-01-08T00:55:51.548Z,-0.70
2024-01-08T00:58:20.063Z,-0.70
2024-01-08T01:00:48.685Z,-0.70
2024-01-08T01:03:17.353Z,-0.70
2024-01-08T01:05:49.682Z,-0.70
2024-01-08T01:08:18.243Z,-0.70
2024-01-08T01:10:46.731Z,-0.70
2024-01-08T01:13:15.373Z,-0.70
2024-01-08T01:15:43.778Z,-0.70
2024-01-08T01:18:12.886Z,-0.70
2024-01-08T01:20:43.913Z,-0.70
2024-01-08T01:23:13.753Z,-0.70
2024-01-08T01:25:42.223Z,-0.60
2024-01-08T01:28:10.690Z,-0.70
2024-01-08T01:30:39.146Z,-0.70
2024-01-08T01:33:07.754Z,-0.70
2024-01-08T01:35:36.230Z,-0.70
2024-01-08T01:38:05.136Z,-0.60
2024-01-08T01:40:34.973Z,-0.60
2024-01-08T01:43:21.457Z,-0.60
2024-01-08T01:45:50.684Z,-0.60
2024-01-08T01:48:19.504Z,-0.60
2024-01-08T01:50:48.585Z,-0.60
2024-01-08T01:53:17.055Z,-0.50
2024-01-08T01:55:47.556Z,-0.60
2024-01-08T01:58:19.097Z,-0.60
2024-01-08T02:00:47.813Z,-0.60
2024-01-08T02:03:16.414Z,-0.60
2024-01-08T02:05:45.000Z,-0.60
2024-01-08T02:08:15.942Z,-0.60
2024-01-08T02:10:44.385Z,-0.60
2024-01-08T02:13:14.193Z,-0.60
2024-01-08T02:15:44.713Z,-0.60
2024-01-08T02:18:13.154Z,-0.60
2024-01-08T02:20:41.569Z,-0.60
2024-01-08T02:23:13.705Z,-0.60
2024-01-08T02:25:42.236Z,-0.60
2024-01-08T02:28:12.452Z,-0.60
2024-01-08T02:30:40.989Z,-0.60
2024-01-08T02:33:09.459Z,-0.60
2024-01-08T02:35:38.423Z,-0.50
2024-01-08T02:38:06.926Z,-0.60
2024-01-08T02:40:36.809Z,-0.60
2024-01-08T02:43:05.900Z,-0.60
2024-01-08T02:45:34.308Z,-0.50
2024-01-08T02:48:02.932Z,-0.60
2024-01-08T02:50:31.411Z,-0.60
2024-01-08T02:53:02.959Z,-0.60
2024-01-08T02:55:31.403Z,-0.50
2024-01-08T02:58:05.100Z,-0.50
2024-01-08T03:00:33.553Z,-0.60
2024-01-08T03:03:02.085Z,-0.60
2024-01-08T03:05:30.542Z,-0.60
2024-01-08T03:08:01.538Z,-0.60
2024-01-08T03:10:30.295Z,-0.60
2024-01-08T03:13:00.154Z,-0.50
2024-01-08T03:15:28.602Z,-0.50
2024-01-08T03:17:57.096Z,-0.50
2024-01-08T03:20:25.640Z,-0.50
2024-01-08T03:22:54.634Z,-0.50
2024-01-08T03:25:23.032Z,-0.50
2024-01-08T03:27:51.468Z,-0.50
2024-01-08T03:30:21.446Z,-0.50
2024-01-08T03:32:50.201Z,-0.50
2024-01-08T03:35:19.823Z,-0.50
2024-01-08T03:37:50.671Z,-0.50
2024-01-08T03:40:22.205Z,-0.60
2024-01-08T03:42:50.564Z,-0.50
2024-01-08T03:45:19.022Z,-0.50
2024-01-08T03:47:50.173Z,-0.50
2024-01-08T03:50:18.715Z,-0.50
2024-01-08T03:52:49.467Z,-0.60
2024-01-08T03:55:17.943Z,-0.50
2024-01-08T03:57:46.339Z,-0.50
2024-01-08T04:00:17.444Z,-0.50
2024-01-08T04:02:49.931Z,-0.50
2024-01-08T04:05:18.553Z,-0.50
2024-01-08T04:07:46.965Z,-0.50
2024-01-08T04:10:15.461Z,-0.50
2024-01-08T04:12:44.425Z,-0.60
2024-01-08T04:15:12.903Z,-0.50
2024-01-08T04:17:41.579Z,-0.50
2024-01-08T04:20:12.249Z,-0.50
2024-01-08T04:22:40.671Z,-0.50
2024-01-08T04:25:09.616Z,-0.50
2024-01-08T04:27:38.054Z,-0.50
2024-01-08T04:30:07.895Z,-0.50
2024-01-08T04:32:36.367Z,-0.50
2024-01-08T04:35:05.474Z,-0.60
2024-01-08T04:37:35.910Z,-0.60
2024-01-08T04:40:05.021Z,-0.50
2024-01-08T04:42:33.426Z,-0.60
2024-01-08T04:45:01.832Z,-0.60
2024-01-08T04:47:32.525Z,-0.50
2024-01-08T04:50:01.077Z,-0.50
2024-01-08T04:52:29.568Z,-0.50
2024-01-08T04:54:59.322Z,-0.50
2024-01-08T04:57:29.642Z,-0.50
2024-01-08T04:59:58.038Z,-0.50
2024-01-08T05:02:26.598Z,-0.50
2024-01-08T05:04:55.072Z,-0.50
2024-01-08T05:07:23.604Z,-0.50
2024-01-08T05:09:51.994Z,-0.50
2024-01-08T05:12:21.769Z,-0.50
2024-01-08T05:14:50.249Z,-0.50
2024-01-08T05:17:19.419Z,-0.50
2024-01-08T05:19:48.892Z,-0.50
2024-01-08T05:22:17.331Z,-0.50
2024-01-08T05:24:46.289Z,-0.50
2024-01-08T05:27:14.965Z,-0.50
2024-01-08T05:29:45.298Z,-0.60
2024-01-08T05:32:13.863Z,-0.60
2024-01-08T05:34:43.188Z,-0.60
2024-01-08T05:37:11.603Z,-0.60
2024-01-08T05:39:39.982Z,-0.60
2024-01-08T05:42:08.647Z,-0.60
2024-01-08T05:44:38.962Z,-0.60
2024-01-08T05:47:09.298Z,-0.70
2024-01-08T05:49:37.772Z,-0.70
2024-01-08T05:52:06.923Z,-0.70
2024-01-08T05:54:35.287Z,-0.70
2024-01-08T05:57:04.224Z,-0.70
2024-01-08T05:59:32.686Z,-0.70
2024-01-08T06:02:01.446Z,-0.70
2024-01-08T06:04:31.440Z,-0.70
2024-01-08T06:07:01.874Z,-0.80
2024-01-08T06:09:30.209Z,-0.80
2024-01-08T06:11:59.698Z,-0.80
2024-01-08T06:14:28.290Z,-0.80
2024-01-08T06:16:59.102Z,-0.80
2024-01-08T06:19:27.635Z,-0.80
2024-01-08T06:21:57.552Z,-0.80
2024-01-08T06:24:26.158Z,-0.80
2024-01-08T06:26:54.757Z,-0.80
2024-01-08T06:29:23.863Z,-0.80
2024-01-08T06:31:53.240Z,-0.80
2024-01-08T06:34:24.944Z,-0.80
2024-01-08T06:36:53.480Z,-0.80
2024-01-08T06:39:23.488Z,-0.80
2024-01-08T06:41:51.886Z,-0.80
2024-01-08T06:44:20.464Z,-0.90
2024-01-08T06:46:48.922Z,-0.90
2024-01-08T06:49:20.100Z,-0.90
2024-01-08T06:51:48.652Z,-0.90
2024-01-08T06:54:17.131Z,-0.90
2024-01-08T06:56:46.982Z,-0.90
2024-01-08T06:59:16.962Z,-0.90
2024-01-08T07:01:45.728Z,-0.90
2024-01-08T07:04:14.458Z,-0.90
2024-01-08T07:06:42.852Z,-0.90
2024-01-08T07:09:13.858Z,-0.90
2024-01-08T07:11:42.354Z,-0.90
2024-01-08T07:14:12.206Z,-0.90
2024-01-08T07:16:43.138Z,-0.90
2024-01-08T07:19:11.582Z,-0.90
2024-01-08T07:21:40.113Z,-0.90
2024-01-08T07:24:08.562Z,-0.90
2024-01-08T07:26:37.037Z,-0.90
2024-01-08T07:29:05.792Z,-0.80
2024-01-08T07:31:35.801Z,-0.90
2024-01-08T07:34:06.830Z,-0.80
2024-01-08T07:36:35.288Z,-0.80
2024-01-08T07:39:03.645Z,-0.80
2024-01-08T07:41:34.312Z,-0.80
2024-01-08T07:44:05.077Z,-0.80
2024-01-08T07:46:33.511Z,-0.70
2024-01-08T07:49:03.437Z,-0.70
2024-01-08T07:51:33.817Z,-0.70
2024-01-08T07:54:03.037Z,-0.80
2024-01-08T07:56:31.671Z,-0.70
2024-01-08T07:59:00.183Z,-0.70
2024-01-08T08:01:28.726Z,-0.70
2024-01-08T08:03:59.401Z,-0.60
2024-01-08T08:06:32.317Z,-0.70
2024-01-08T08:09:00.817Z,-0.70
2024-01-08T08:11:29.628Z,-0.70
2024-01-08T08:13:58.140Z,-0.70
2024-01-08T08:16:26.661Z,-0.70
2024-01-08T08:18:56.175Z,-0.70
2024-01-08T08:21:25.395Z,-0.70
2024-01-08T08:23:58.926Z,-0.60
2024-01-08T08:26:27.539Z,-0.60
2024-01-08T08:28:56.140Z,-0.60
2024-01-08T08:31:26.878Z,-0.60
2024-01-08T08:33:57.636Z,-0.60
2024-01-08T08:36:26.228Z,-0.60
2024-01-08T08:38:57.668Z,-0.60
2024-01-08T08:41:26.533Z,-0.60
2024-01-08T08:43:56.110Z,-0.50
2024-01-08T08:46:24.662Z,-0.60
2024-01-08T08:48:53.904Z,-0.50
2024-01-08T08:51:22.483Z,-0.50
2024-01-08T08:53:50.888Z,-0.50
2024-01-08T08:56:20.838Z,-0.50
2024-01-08T08:58:49.325Z,-0.50
2024-01-08T09:01:20.343Z,-0.40
2024-01-08T09:03:51.275Z,-0.40
2024-01-08T09:06:21.706Z,-0.50
2024-01-08T09:08:50.375Z,-0.40
2024-01-08T09:11:20.515Z,-0.40
2024-01-08T09:13:49.224Z,-0.40
2024-01-08T09:16:18.058Z,-0.40
2024-01-08T09:18:46.962Z,-0.40
2024-01-08T09:21:16.295Z,-0.40
2024-01-08T09:23:45.454Z,-0.40
2024-01-08T09:26:16.941Z,-0.40
2024-01-08T09:28:46.955Z,-0.40
2024-01-08T09:31:15.559Z,-0.30
2024-01-08T09:33:44.259Z,-0.30
2024-01-08T09:36:15.224Z,-0.30
2024-01-08T09:38:44.978Z,-0.30
2024-01-08T09:41:23.332Z,-0.30
2024-01-08T09:43:54.339Z,-0.20
2024-01-08T09:46:26.411Z,-0.20
2024-01-08T09:48:56.241Z,-0.20
2024-01-08T09:51:25.250Z,-0.20
2024-01-08T09:53:54.491Z,-0.20
2024-01-08T09:56:23.919Z,-0.20
2024-01-08T09:58:53.941Z,-0.20
2024-01-08T10:01:22.389Z,-0.10
2024-01-08T10:03:50.856Z,-0.20
2024-01-08T10:06:19.325Z,-0.10
2024-01-08T10:08:49.968Z,-0.10
2024-01-08T10:11:19.417Z,-0.10
2024-01-08T10:13:48.097Z,-0.10
2024-01-08T10:16:18.010Z,-0.10
2024-01-08T10:18:48.841Z,-0.10
2024-01-08T10:21:19.160Z,-0.10
2024-01-08T10:23:48.886Z,-0.10
2024-01-08T10:26:20.360Z,-0.10
2024-01-08T10:28:49.051Z,0.00
2024-01-08T10:31:19.125Z,0.00
2024-01-08T10:33:47.931Z,-0.10
2024-01-08T10:36:16.701Z,-0.10
2024-01-08T10:38:47.986Z,0.00
2024-01-08T10:41:17.237Z,0.00
2024-01-08T10:43:46.231Z,0.00
2024-01-08T10:46:14.808Z,0.00
2024-01-08T10:48:48.118Z,0.00
2024-01-08T10:51:18.430Z,0.00
2024-01-08T10:53:48.096Z,0.00
2024-01-08T10:56:20.935Z,0.00
2024-01-08T10:58:57.935Z,0.10
2024-01-08T11:01:27.682Z,0.10
2024-01-08T11:03:59.291Z,0.10
2024-01-08T11:06:29.709Z,0.10
2024-01-08T11:08:58.420Z,0.10
2024-01-08T11:11:27.878Z,0.10
2024-01-08T11:13:59.171Z,0.10
2024-01-08T11:16:30.945Z,0.20
2024-01-08T11:19:28.845Z,0.20
2024-01-08T11:21:58.175Z,0.20
2024-01-08T11:24:26.855Z,0.20
2024-01-08T11:26:55.360Z,0.20
2024-01-08T11:29:23.850Z,0.10
2024-01-08T11:32:46.321Z,0.20
2024-01-08T11:35:21.208Z,0.20
2024-01-08T11:38:00.937Z,0.20
2024-01-08T11:40:32.041Z,0.20
2024-01-08T11:43:02.717Z,0.20
2024-01-08T11:45:31.178Z,0.20
2024-01-08T11:48:00.305Z,0.20
2024-01-08T11:50:30.312Z,0.10
2024-01-08T11:53:01.054Z,0.20
2024-01-08T11:55:33.210Z,0.10
2024-01-08T11:58:02.108Z,0.20
2024-01-08T12:00:31.536Z,0.20
2024-01-08T12:03:03.755Z,0.20
2024-01-08T12:05:33.844Z,0.30
2024-01-08T12:08:06.150Z,0.40
2024-01-08T12:10:34.672Z,0.50
2024-01-08T12:13:05.838Z,0.60
2024-01-08T12:15:34.706Z,0.70
2024-01-08T12:18:03.273Z,0.70
2024-01-08T12:20:33.766Z,0.70
2024-01-08T12:23:02.448Z,0.70
2024-01-08T12:25:30.863Z,0.70
2024-01-08T12:28:01.701Z,0.60
2024-01-08T12:30:30.271Z,0.70
2024-01-08T12:32:59.062Z,0.70
2024-01-08T12:35:28.409Z,0.90
2024-01-08T12:37:58.812Z,1.00
2024-01-08T12:40:27.362Z,1.00
2024-01-08T12:42:55.889Z,1.00
2024-01-08T12:45:24.934Z,1.00
2024-01-08T12:47:53.638Z,0.90
2024-01-08T12:50:25.217Z,0.90
2024-01-08T12:52:53.864Z,1.00
2024-01-08T12:55:25.972Z,1.00
2024-01-08T12:57:58.400Z,1.10
2024-01-08T13:00:28.989Z,1.20
2024-01-08T13:03:00.135Z,1.20
2024-01-08T13:05:29.062Z,1.20
2024-01-08T13:07:57.552Z,1.20
2024-01-08T13:10:27.597Z,1.20
2024-01-08T13:12:55.988Z,1.20
2024-01-08T13:15:24.400Z,1.20
2024-01-08T13:17:53.240Z,1.30
2024-01-08T13:20:26.480Z,1.30
2024-01-08T13:22:56.149Z,1.30
2024-01-08T13:25:25.274Z,1.30
2024-01-08T13:27:55.246Z,1.30
2024-01-08T13:30:26.329Z,1.30
2024-01-08T13:32:54.814Z,1.30
2024-01-08T13:35:23.942Z,1.40
2024-01-08T13:37:52.596Z,1.30
2024-01-08T13:40:22.461Z,1.30
2024-01-08T13:42:52.730Z,1.30
2024-01-08T13:45:22.858Z,1.40
2024-01-08T13:47:52.388Z,1.40
2024-01-08T13:50:21.192Z,1.40
2024-01-08T13:52:49.835Z,1.40
2024-01-08T13:55:18.391Z,1.40
2024-01-08T13:57:47.001Z,1.40
2024-01-08T14:00:17.493Z,1.40
2024-01-08T14:02:47.569Z,1.40
2024-01-08T14:05:17.209Z,1.50
2024-01-08T14:07:45.905Z,1.40
2024-01-08T14:10:17.505Z,1.40
2024-01-08T14:12:48.250Z,1.40
2024-01-08T14:15:26.392Z,1.40
2024-01-08T14:17:58.296Z,1.40
2024-01-08T14:20:27.528Z,1.40
2024-01-08T14:22:57.154Z,1.40
2024-01-08T14:25:28.060Z,1.40
2024-01-08T14:27:57.393Z,1.30
2024-01-08T14:30:25.882Z,1.30
2024-01-08T14:32:54.580Z,1.30
2024-01-08T14:35:26.783Z,1.30
2024-01-08T14:37:55.177Z,1.20
2024-01-08T14:40:29.455Z,1.20
2024-01-08T14:42:59.564Z,1.10
2024-01-08T14:45:28.268Z,1.10
2024-01-08T14:47:57.069Z,1.00
2024-01-08T14:50:27.936Z,1.00
2024-01-08T14:52:56.622Z,1.00
2024-01-08T14:55:25.215Z,1.00
2024-01-08T14:57:56.558Z,0.90
2024-01-08T15:00:26.625Z,0.80
2024-01-08T15:02:55.711Z,0.90
2024-01-08T15:05:25.363Z,0.80
2024-01-08T15:07:55.494Z,0.80
2024-01-08T15:10:26.489Z,0.80
2024-01-08T15:12:55.002Z,0.80
2024-01-08T15:15:26.038Z,0.80
2024-01-08T15:17:54.674Z,0.70
2024-01-08T15:20:25.846Z,0.70
2024-01-08T15:22:55.717Z,0.70
2024-01-08T15:25:24.107Z,0.60
2024-01-08T15:27:52.519Z,0.60
2024-01-08T15:30:22.239Z,0.60
2024-01-08T15:32:50.667Z,0.60
2024-01-08T15:35:19.404Z,0.50
2024-01-08T15:37:47.920Z,0.50
2024-01-08T15:40:20.236Z,0.40
2024-01-08T15:42:48.840Z,0.40
2024-01-08T15:45:17.792Z,0.30
2024-01-08T15:47:46.232Z,0.30
2024-01-08T15:50:15.074Z,0.30
2024-01-08T15:52:43.739Z,0.20
2024-01-08T15:55:15.023Z,0.20
2024-01-08T15:57:45.509Z,0.20
2024-01-08T16:00:15.139Z,0.10
2024-01-08T16:02:43.708Z,0.10
2024-01-08T16:05:12.536Z,0.10
2024-01-08T16:07:41.008Z,0.00
2024-01-08T16:10:10.395Z,0.00
2024-01-08T16:12:38.889Z,0.00
2024-01-08T16:15:09.643Z,-0.10
2024-01-08T16:17:38.530Z,-0.10
2024-01-08T16:20:08.545Z,-0.10
2024-01-08T16:22:37.418Z,-0.20
2024-01-08T16:25:09.558Z,-0.20
2024-01-08T16:27:38.002Z,-0.20
2024-01-08T16:30:08.878Z,-0.30
2024-01-08T16:32:39.991Z,-0.30
2024-01-08T16:35:09.419Z,-0.30
2024-01-08T16:37:37.939Z,-0.30
2024-01-08T16:40:07.735Z,-0.40
2024-01-08T16:42:36.124Z,-0.40
2024-01-08T16:45:05.233Z,-0.40
2024-01-08T16:47:44.906Z,-0.50
2024-01-08T16:50:17.773Z,-0.50
2024-01-08T16:52:46.362Z,-0.50
2024-01-08T16:55:17.756Z,-0.50
2024-01-08T16:57:46.173Z,-0.50
2024-01-08T17:00:17.207Z,-0.60
2024-01-08T17:02:47.477Z,-0.60
2024-01-08T17:05:18.769Z,-0.60
2024-01-08T17:07:47.423Z,-0.60
2024-01-08T17:10:17.919Z,-0.60
2024-01-08T17:12:48.506Z,-0.70
2024-01-08T17:15:17.196Z,-0.70
2024-01-08T17:17:47.942Z,-0.70
2024-01-08T17:20:19.608Z,-0.70
2024-01-08T17:22:48.708Z,-0.80
2024-01-08T17:25:17.731Z,-0.80
2024-01-08T17:27:48.752Z,-0.80
2024-01-08T17:30:19.746Z,-0.80
2024-01-08T17:32:50.105Z,-0.80
2024-01-08T17:35:19.199Z,-0.80
2024-01-08T17:37:47.702Z,-0.80
2024-01-08T17:40:16.588Z,-0.80
2024-01-08T17:42:45.147Z,-0.80
2024-01-08T17:45:14.358Z,-0.80
2024-01-08T17:47:42.849Z,-0.90
2024-01-08T17:50:14.208Z,-0.90
2024-01-08T17:52:42.801Z,-0.90
2024-01-08T17:55:11.464Z,-0.90
2024-01-08T17:57:40.030Z,-1.00
2024-01-08T18:00:11.557Z,-1.00
2024-01-08T18:02:40.532Z,-0.90
2024-01-08T18:05:09.646Z,-1.00
2024-01-08T18:07:39.825Z,-1.00
2024-01-08T18:10:09.178Z,-1.00
2024-01-08T18:12:39.997Z,-1.10
2024-01-08T18:15:12.779Z,-1.00
2024-01-08T18:17:41.891Z,-1.00
2024-01-08T18:20:11.125Z,-1.10
2024-01-08T18:22:41.399Z,-1.00
2024-01-08T18:25:10.024Z,-1.10
2024-01-08T18:27:38.408Z,-1.10
2024-01-08T18:30:08.310Z,-1.20
2024-01-08T18:32:37.009Z,-1.20
2024-01-08T18:35:07.384Z,-1.20
2024-01-08T18:37:35.865Z,-1.30
2024-01-08T18:40:07.479Z,-1.30
2024-01-08T18:42:35.940Z,-1.30
2024-01-08T18:45:04.798Z,-1.30
2024-01-08T18:47:33.327Z,-1.40
2024-01-08T18:50:02.140Z,-1.30
2024-01-08T18:52:30.694Z,-1.40
2024-01-08T18:54:59.119Z,-1.40
2024-01-08T18:57:29.403Z,-1.40
2024-01-08T18:59:58.594Z,-1.40
2024-01-08T19:02:27.031Z,-1.50
2024-01-08T19:04:56.075Z,-1.50
2024-01-08T19:07:24.805Z,-1.50
2024-01-08T19:09:53.288Z,-1.50
2024-01-08T19:12:21.775Z,-1.60
2024-01-08T19:14:52.026Z,-1.60
2024-01-08T19:17:20.521Z,-1.70
2024-01-08T19:19:48.904Z,-1.80
2024-01-08T19:22:17.348Z,-1.80
2024-01-08T19:24:45.731Z,-1.70
2024-01-08T19:27:14.262Z,-1.80
2024-01-08T19:29:45.391Z,-1.70
2024-01-08T19:32:15.610Z,-1.80
2024-01-08T19:34:48.152Z,-1.80
2024-01-08T19:37:21.124Z,-1.80
2024-01-08T19:39:49.742Z,-1.90
2024-01-08T19:42:20.616Z,-1.90
2024-01-08T19:44:50.161Z,-1.90
2024-01-08T19:47:20.128Z,-1.90
2024-01-08T19:49:48.988Z,-1.90
2024-01-08T19:52:18.509Z,-2.00
2024-01-08T19:54:48.983Z,-2.00
2024-01-08T19:57:30.793Z,-2.00
2024-01-08T20:00:16.774Z,-2.00
2024-01-08T20:02:46.976Z,-2.10
2024-01-08T20:05:17.958Z,-2.00
2024-01-08T20:07:46.512Z,-2.00
2024-01-08T20:10:15.253Z,-2.00
2024-01-08T20:12:46.911Z,-2.00
2024-01-08T20:15:15.664Z,-1.90
2024-01-08T20:17:48.147Z,-1.80
2024-01-08T20:20:17.698Z,-1.80
2024-01-08T20:22:46.400Z,-1.90
2024-01-08T20:25:15.214Z,-1.90
2024-01-08T20:27:43.742Z,-1.90
2024-01-08T20:30:12.656Z,-1.80
2024-01-08T20:32:48.643Z,-1.80
2024-01-08T20:35:18.786Z,-1.80
2024-01-08T20:37:47.241Z,-1.90
2024-01-08T20:40:15.925Z,-1.80
2024-01-08T20:42:44.337Z,-1.90
2024-01-08T20:45:12.725Z,-1.90
2024-01-08T20:47:45.878Z,-1.80
2024-01-08T20:50:15.262Z,-1.90
2024-01-08T20:52:45.180Z,-1.90
2024-01-08T20:55:13.653Z,-1.90
2024-01-08T20:57:42.064Z,-1.90
2024-01-08T21:00:13.745Z,-1.90
2024-01-08T21:02:43.728Z,-2.00
2024-01-08T21:05:13.613Z,-2.00
2024-01-08T21:07:42.607Z,-2.00
2024-01-08T21:10:13.639Z,-1.90
2024-01-08T21:12:42.341Z,-2.10
2024-01-08T21:15:13.113Z,-2.10
2024-01-08T21:17:43.806Z,-2.10
2024-01-08T21:20:13.321Z,-2.10
2024-01-08T21:22:41.964Z,-2.20
2024-01-08T21:25:12.701Z,-2.30
2024-01-08T21:27:45.221Z,-2.30
2024-01-08T21:30:14.620Z,-2.30
2024-01-08T21:32:43.357Z,-2.20
2024-01-08T21:35:12.370Z,-2.20
2024-01-08T21:37:41.327Z,-2.20
2024-01-08T21:40:11.915Z,-2.30
2024-01-08T21:42:41.910Z,-2.20
2024-01-08T21:45:11.179Z,-2.20
2024-01-08T21:47:42.785Z,-2.20
2024-01-08T21:50:12.006Z,-2.30
2024-01-08T21:52:40.490Z,-2.20
2024-01-08T21:55:09.292Z,-2.30
2024-01-08T21:57:37.882Z,-2.30
2024-01-08T22:00:09.708Z,-2.30
2024-01-08T22:02:38.373Z,-2.40
2024-01-08T22:05:09.384Z,-2.30
2024-01-08T22:07:38.112Z,-2.30
2024-01-08T22:10:07.666Z,-2.40
2024-01-08T22:12:41.595Z,-2.40
2024-01-08T22:15:14.105Z,-2.40
2024-01-08T22:17:42.686Z,-2.50
2024-01-08T22:20:13.809Z,-2.70
2024-01-08T22:22:44.392Z,-2.70
2024-01-08T22:25:14.236Z,-2.70
2024-01-08T22:27:43.095Z,-2.70
2024-01-08T22:30:15.448Z,-2.70
2024-01-08T22:32:44.020Z,-2.70
2024-01-08T22:35:12.724Z,-2.70
2024-01-08T22:37:41.174Z,-2.70
2024-01-08T22:40:10.288Z,-2.70
2024-01-08T22:42:38.744Z,-2.80
2024-01-08T22:45:08.161Z,-2.80
2024-01-08T22:47:38.307Z,-2.90
2024-01-08T22:50:09.301Z,-3.00
2024-01-08T22:52:38.200Z,-3.00
2024-01-08T22:55:07.480Z,-3.00
2024-01-08T22:57:38.534Z,-3.10
2024-01-08T23:00:10.621Z,-3.00
2024-01-08T23:02:40.544Z,-3.20
2024-01-08T23:05:09.823Z,-3.10
2024-01-08T23:07:38.273Z,-3.20
2024-01-08T23:10:07.463Z,-3.20
2024-01-08T23:12:38.106Z,-3.20
2024-01-08T23:15:07.813Z,-3.20
2024-01-08T23:17:36.244Z,-3.20
2024-01-08T23:20:09.062Z,-3.20
2024-01-08T23:22:37.577Z,-3.20
2024-01-08T23:25:06.751Z,-3.30
2024-01-08T23:27:35.153Z,-3.30
2024-01-08T23:30:05.023Z,-3.30
2024-01-08T23:32:33.621Z,-3.30
2024-01-08T23:35:02.155Z,-3.40
2024-01-08T23:37:32.412Z,-3.40
2024-01-08T23:40:00.819Z,-3.50
2024-01-08T23:42:31.060Z,-3.50
2024-01-08T23:44:59.596Z,-3.60
2024-01-08T23:47:28.131Z,-3.60
2024-01-08T23:49:56.589Z,-3.70
2024-01-08T23:52:25.028Z,-3.70
2024-01-08T23:54:54.838Z,-3.70
2024-01-08T23:57:23.441Z,-3.70
2024-01-08T23:59:51.946Z,-3.70
